createdAt,value
2019-04-26T00:01:32.673Z,69.32
2019-04-26T00:04:01.565Z,69.23
2019-04-26T00:06:30.371Z,69.71
2019-04-26T00:09:00.664Z,69.11
2019-04-26T00:11:40.020Z,69.22
2019-04-26T00:14:25.398Z,69.23
2019-04-26T00:16:58.391Z,69.08
2019-04-26T00:19:27.409Z,68.87
2019-04-26T00:21:56.517Z,68.61
2019-04-26T00:24:28.274Z,68.95
2019-04-26T00:26:55.857Z,69.38
2019-04-26T00:29:24.484Z,68.91
2019-04-26T00:31:53.225Z,67.86
2019-04-26T00:34:21.869Z,67.88
2019-04-26T00:36:50.443Z,69.11
2019-04-26T00:39:18.945Z,68.41
2019-04-26T00:41:47.876Z,68.35
2019-04-26T00:44:16.637Z,68.35
2019-04-26T00:46:48.060Z,67.64
2019-04-26T00:49:17.588Z,67.58
2019-04-26T00:51:47.035Z,65.78
2019-04-26T00:54:16.065Z,65.38
2019-04-26T00:56:44.840Z,65.35
2019-04-26T00:59:14.949Z,65.39
2019-04-26T01:01:45.313Z,65.45
2019-04-26T01:04:14.558Z,65.51
2019-04-26T01:06:45.812Z,65.62
2019-04-26T01:09:15.932Z,65.75
2019-04-26T01:11:44.804Z,65.92
2019-04-26T01:14:13.428Z,66.18
2019-04-26T01:16:42.146Z,66.28
2019-04-26T01:19:13.611Z,66.73
2019-04-26T01:21:45.214Z,66.26
2019-04-26T01:24:14.942Z,66.14
2019-04-26T01:26:45.019Z,65.68
2019-04-26T01:29:17.165Z,65.76
2019-04-26T01:32:01.772Z,65.71
2019-04-26T01:34:31.313Z,65.71
2019-04-26T01:37:02.134Z,65.99
2019-04-26T01:39:32.260Z,66.10
2019-04-26T01:42:05.773Z,65.98
2019-04-26T01:44:55.357Z,66.28
2019-04-26T01:47:24.697Z,66.54
2019-04-26T01:49:53.942Z,66.70
2019-04-26T01:52:23.994Z,66.68
2019-04-26T01:54:52.823Z,66.65
2019-04-26T01:57:25.292Z,66.74
2019-04-26T01:59:57.897Z,67.11
2019-04-26T02:02:28.185Z,67.55
2019-04-26T02:05:02.201Z,68.31
2019-04-26T02:07:41.010Z,68.03
2019-04-26T02:10:17.600Z,68.46
2019-04-26T02:12:48.502Z,68.38
2019-04-26T02:15:20.157Z,68.64
2019-04-26T02:17:51.045Z,68.85
2019-04-26T02:20:48.560Z,68.83
2019-04-26T02:23:18.845Z,67.87
2019-04-26T02:25:47.886Z,67.83
2019-04-26T02:28:16.733Z,68.23
2019-04-26T02:30:45.642Z,68.32
2019-04-26T02:33:15.221Z,68.22
2019-04-26T02:35:43.961Z,68.27
2019-04-26T02:38:12.600Z,68.83
2019-04-26T02:40:41.441Z,69.24
2019-04-26T02:43:11.177Z,69.32
2019-04-26T02:46:05.131Z,69.40
2019-04-26T02:48:38.311Z,69.64
2019-04-26T02:51:18.766Z,69.88
2019-04-26T02:53:52.996Z,70.20
2019-04-26T02:56:28.217Z,69.82
2019-04-26T02:59:00.435Z,70.24
2019-04-26T03:01:31.812Z,70.87
2019-04-26T03:04:00.368Z,70.73
2019-04-26T03:06:32.765Z,70.83
2019-04-26T03:09:06.623Z,70.78
2019-04-26T03:11:40.952Z,70.81
2019-04-26T03:14:13.837Z,70.66
2019-04-26T03:16:58.574Z,70.81
2019-04-26T03:19:54.662Z,69.39
2019-04-26T03:22:42.837Z,68.97
2019-04-26T03:25:28.956Z,69.06
2019-04-26T03:28:37.623Z,69.52
2019-04-26T03:31:27.921Z,69.95
2019-04-26T03:34:22.673Z,69.25
2019-04-26T03:37:20.713Z,69.46
2019-04-26T03:40:02.756Z,69.16
2019-04-26T03:42:55.719Z,69.44
2019-04-26T03:45:44.189Z,69.52
2019-04-26T03:48:40.829Z,69.81
2019-04-26T03:51:29.369Z,69.60
2019-04-26T03:54:15.935Z,69.80
2019-04-26T03:56:49.134Z,69.95
2019-04-26T03:59:27.862Z,69.75
2019-04-26T04:02:17.198Z,69.64
2019-04-26T04:04:59.203Z,69.57
2019-04-26T04:07:39.529Z,68.99
2019-04-26T04:10:18.893Z,68.81
2019-04-26T04:12:59.577Z,68.44
2019-04-26T04:15:31.417Z,68.34
2019-04-26T04:18:07.419Z,67.96
2019-04-26T04:21:09.544Z,67.93
2019-04-26T04:23:42.772Z,67.71
2019-04-26T04:26:14.479Z,67.25
2019-04-26T04:29:04.382Z,66.91
2019-04-26T04:31:43.675Z,66.55
2019-04-26T04:34:33.255Z,66.70
2019-04-26T04:37:04.855Z,66.04
2019-04-26T04:39:36.393Z,65.98
2019-04-26T04:42:43.658Z,65.94
2019-04-26T04:45:42.524Z,65.60
2019-04-26T04:48:42.377Z,65.22
2019-04-26T04:51:44.866Z,65.21
2019-04-26T04:54:37.391Z,65.02
2019-04-26T04:57:14.716Z,64.71
2019-04-26T05:00:03.805Z,64.16
2019-04-26T05:02:39.920Z,63.98
2019-04-26T05:05:24.947Z,62.94
2019-04-26T05:08:08.557Z,62.57
2019-04-26T05:10:40.151Z,61.91
2019-04-26T05:13:23.905Z,61.82
2019-04-26T05:16:15.008Z,61.45
2019-04-26T05:19:26.726Z,62.45
2019-04-26T05:22:20.879Z,61.88
2019-04-26T05:25:12.145Z,61.45
2019-04-26T05:27:46.778Z,60.67
2019-04-26T05:30:22.879Z,60.92
2019-04-26T05:33:09.594Z,60.08
2019-04-26T05:36:10.099Z,59.95
2019-04-26T05:38:41.723Z,59.61
2019-04-26T05:41:35.862Z,59.19
2019-04-26T05:44:18.238Z,59.10
2019-04-26T05:47:22.336Z,58.55
2019-04-26T05:50:27.135Z,57.57
2019-04-26T05:53:03.300Z,56.62
2019-04-26T05:56:02.519Z,55.84
2019-04-26T05:58:39.946Z,54.95
2019-04-26T06:01:57.397Z,52.79
2019-04-26T06:04:30.581Z,52.67
2019-04-26T06:07:27.845Z,50.83
2019-04-26T06:10:06.786Z,50.09
2019-04-26T06:13:03.919Z,51.58
2019-04-26T06:16:02.434Z,51.23
2019-04-26T06:18:44.654Z,50.35
2019-04-26T06:21:31.240Z,49.32
2019-04-26T06:24:17.773Z,49.49
2019-04-26T06:27:11.003Z,47.99
2019-04-26T06:29:55.203Z,46.89
2019-04-26T06:32:38.849Z,45.95
2019-04-26T06:35:13.357Z,45.49
2019-04-26T06:38:07.660Z,44.62
2019-04-26T06:40:54.552Z,44.79
2019-04-26T06:43:27.613Z,43.08
2019-04-26T06:46:28.199Z,43.00
2019-04-26T06:49:26.704Z,40.33
2019-04-26T06:52:13.092Z,40.85
2019-04-26T06:55:13.517Z,39.06
2019-04-26T06:58:13.110Z,38.85
2019-04-26T07:01:10.588Z,36.78
2019-04-26T07:03:59.643Z,31.91
2019-04-26T07:06:47.996Z,29.12
2019-04-26T07:09:18.314Z,27.76
2019-04-26T07:12:17.224Z,27.40
2019-04-26T07:15:05.825Z,26.28
2019-04-26T07:17:46.564Z,25.81
2019-04-26T07:20:38.383Z,22.38
2019-04-26T07:23:35.685Z,20.42
2019-04-26T07:26:25.646Z,19.16
2019-04-26T07:29:03.128Z,16.92
2019-04-26T07:31:43.926Z,13.70
2019-04-26T07:34:34.615Z,14.66
2019-04-26T07:37:18.212Z,14.07
2019-04-26T07:40:12.161Z,13.52
2019-04-26T07:42:57.435Z,13.59
2019-04-26T07:46:03.017Z,14.60
2019-04-26T07:48:55.043Z,12.25
2019-04-26T07:51:55.237Z,12.26
2019-04-26T07:54:45.039Z,11.65
2019-04-26T07:57:40.996Z,12.04
2019-04-26T08:00:18.975Z,12.61
2019-04-26T08:03:05.504Z,10.65
2019-04-26T08:05:53.174Z,10.88
2019-04-26T08:08:24.735Z,9.92
2019-04-26T08:11:06.194Z,10.85
2019-04-26T08:13:37.892Z,11.73
2019-04-26T08:16:19.207Z,9.57
2019-04-26T08:18:52.481Z,10.31
2019-04-26T08:21:25.657Z,10.10
2019-04-26T08:24:01.086Z,10.17
2019-04-26T08:26:32.676Z,10.15
2019-04-26T08:29:06.496Z,10.33
2019-04-26T08:31:38.681Z,11.03
2019-04-26T08:34:12.364Z,11.46
2019-04-26T08:36:45.233Z,9.70
2019-04-26T08:39:32.475Z,8.75
2019-04-26T08:41:57.535Z,8.25
2019-04-26T08:44:34.448Z,7.99
2019-04-26T08:47:16.736Z,6.73
2019-04-26T08:49:47.904Z,8.33
2019-04-26T08:52:18.929Z,6.93
2019-04-26T08:54:53.563Z,7.04
2019-04-26T08:57:25.562Z,7.54
2019-04-26T08:59:56.780Z,7.75
2019-04-26T09:02:44.589Z,7.31
2019-04-26T09:05:20.294Z,6.67
2019-04-26T09:07:53.497Z,6.66
2019-04-26T09:10:25.106Z,5.97
2019-04-26T09:12:56.493Z,6.20
2019-04-26T09:15:44.747Z,7.31
2019-04-26T09:18:13.384Z,6.80
2019-04-26T09:20:42.879Z,7.23
2019-04-26T09:23:20.091Z,7.23
2019-04-26T09:25:59.309Z,6.27
2019-04-26T09:28:28.167Z,5.90
2019-04-26T09:31:19.747Z,5.74
2019-04-26T09:33:58.552Z,5.46
2019-04-26T09:36:27.194Z,4.92
2019-04-26T09:38:55.834Z,7.02
2019-04-26T09:41:26.502Z,6.42
2019-04-26T09:44:02.291Z,6.87
2019-04-26T09:46:52.763Z,5.90
2019-04-26T09:49:30.189Z,5.22
2019-04-26T09:51:58.939Z,5.69
2019-04-26T09:54:27.573Z,4.53
2019-04-26T09:56:56.214Z,4.72
2019-04-26T09:59:24.841Z,4.07
2019-04-26T10:01:55.386Z,4.66
2019-04-26T10:04:23.906Z,4.45
2019-04-26T10:06:52.540Z,4.51
2019-04-26T10:09:22.791Z,4.75
2019-04-26T10:11:53.169Z,3.99
2019-04-26T10:14:23.440Z,4.01
2019-04-26T10:17:02.579Z,5.61
2019-04-26T10:19:38.621Z,4.22
2019-04-26T10:22:07.303Z,4.85
2019-04-26T10:24:36.131Z,5.09
2019-04-26T10:27:05.024Z,3.14
2019-04-26T10:29:33.679Z,3.90
2019-04-26T10:32:02.473Z,3.66
2019-04-26T10:34:31.238Z,2.69
2019-04-26T10:37:01.658Z,2.52
2019-04-26T10:39:32.483Z,2.77
2019-04-26T10:42:00.705Z,2.23
2019-04-26T10:44:29.349Z,2.69
2019-04-26T10:46:59.882Z,2.48
2019-04-26T10:49:38.782Z,2.95
2019-04-26T10:52:11.934Z,2.88
2019-04-26T10:54:45.943Z,3.42
2019-04-26T10:57:15.194Z,3.88
2019-04-26T10:59:45.619Z,3.62
2019-04-26T11:02:16.713Z,4.13
2019-04-26T11:04:45.359Z,4.04
2019-04-26T11:07:14.167Z,4.43
2019-04-26T11:09:42.808Z,5.94
2019-04-26T11:12:14.737Z,7.01
2019-04-26T11:14:43.585Z,7.23
2019-04-26T11:17:16.186Z,9.51
2019-04-26T11:19:44.320Z,9.85
2019-04-26T11:22:13.130Z,11.06
2019-04-26T11:24:41.836Z,11.16
2019-04-26T11:27:11.242Z,11.84
2019-04-26T11:29:39.941Z,13.88
2019-04-26T11:32:09.177Z,13.84
2019-04-26T11:34:37.871Z,14.43
2019-04-26T11:37:06.683Z,15.32
2019-04-26T11:39:36.528Z,16.13
2019-04-26T11:42:07.974Z,15.79
2019-04-26T11:44:36.097Z,15.57
2019-04-26T11:47:07.718Z,16.70
2019-04-26T11:49:37.307Z,17.69
2019-04-26T11:52:05.762Z,19.30
2019-04-26T11:54:34.487Z,18.40
2019-04-26T11:57:03.213Z,19.29
2019-04-26T11:59:31.987Z,17.95
2019-04-26T12:02:00.608Z,19.19
2019-04-26T12:04:40.149Z,17.40
2019-04-26T12:07:16.508Z,18.49
2019-04-26T12:09:46.757Z,19.64
2019-04-26T12:12:15.384Z,20.39
2019-04-26T12:14:44.008Z,19.62
2019-04-26T12:17:12.649Z,20.05
2019-04-26T12:19:41.296Z,20.76
2019-04-26T12:22:10.070Z,21.22
2019-04-26T12:24:38.681Z,22.60
2019-04-26T12:27:10.215Z,21.35
2019-04-26T12:29:37.745Z,22.23
2019-04-26T12:32:06.491Z,22.65
2019-04-26T12:34:35.190Z,22.88
2019-04-26T12:37:03.935Z,23.00
2019-04-26T12:39:36.771Z,23.22
2019-04-26T12:42:04.302Z,23.73
2019-04-26T12:44:36.377Z,23.59
2019-04-26T12:47:09.613Z,24.96
2019-04-26T12:49:38.241Z,22.88
2019-04-26T12:52:07.099Z,23.43
2019-04-26T12:54:38.964Z,23.71
2019-04-26T12:57:07.041Z,23.92
2019-04-26T12:59:44.067Z,24.49
2019-04-26T13:02:06.390Z,25.26
2019-04-26T13:04:36.142Z,25.12
2019-04-26T13:07:22.685Z,25.87
2019-04-26T13:09:43.387Z,26.79
2019-04-26T13:12:13.657Z,26.81
2019-04-26T13:14:56.076Z,25.96
2019-04-26T13:17:26.343Z,25.86
2019-04-26T13:19:55.473Z,26.58
2019-04-26T13:22:24.222Z,25.75
2019-04-26T13:24:52.894Z,25.36
2019-04-26T13:27:21.412Z,25.58
2019-04-26T13:30:01.808Z,24.85
2019-04-26T13:32:20.396Z,24.14
2019-04-26T13:34:49.064Z,24.40
2019-04-26T13:37:17.678Z,24.84
2019-04-26T13:39:46.352Z,24.69
2019-04-26T13:42:17.415Z,24.88
2019-04-26T13:44:52.772Z,25.11
2019-04-26T13:47:39.462Z,25.12
2019-04-26T13:50:15.682Z,25.61
2019-04-26T13:52:44.300Z,25.12
2019-04-26T13:55:14.565Z,25.32
2019-04-26T13:57:44.571Z,24.89
2019-04-26T14:00:15.311Z,24.99
2019-04-26T14:02:44.021Z,25.86
2019-04-26T14:05:15.278Z,24.89
2019-04-26T14:07:43.122Z,24.34
2019-04-26T14:10:11.889Z,24.29
2019-04-26T14:12:40.575Z,24.64
2019-04-26T14:15:10.234Z,24.75
2019-04-26T14:17:38.956Z,25.17
2019-04-26T14:20:08.522Z,25.22
2019-04-26T14:22:40.997Z,24.86
2019-04-26T14:25:11.316Z,25.28
2019-04-26T14:27:49.896Z,24.78
2019-04-26T14:30:18.127Z,24.66
2019-04-26T14:32:46.791Z,24.51
2019-04-26T14:35:17.086Z,24.53
2019-04-26T14:37:49.805Z,24.76
2019-04-26T14:40:17.713Z,24.94
2019-04-26T14:42:48.557Z,24.81
2019-04-26T14:45:23.642Z,24.62
2019-04-26T14:47:47.893Z,24.73
2019-04-26T14:50:16.929Z,24.71
2019-04-26T14:52:45.583Z,25.31
2019-04-26T14:55:16.519Z,25.48
2019-04-26T14:57:46.767Z,24.97
2019-04-26T15:00:16.776Z,25.35
2019-04-26T15:03:03.413Z,25.40
2019-04-26T15:05:33.677Z,25.46
2019-04-26T15:08:03.888Z,25.54
2019-04-26T15:10:44.404Z,25.56
2019-04-26T15:13:17.236Z,25.19
2019-04-26T15:15:37.402Z,26.00
2019-04-26T15:18:06.336Z,25.71
2019-04-26T15:20:35.059Z,26.29
2019-04-26T15:23:03.700Z,26.09
2019-04-26T15:25:33.617Z,25.60
2019-04-26T15:28:02.572Z,26.23
2019-04-26T15:30:34.272Z,26.73
2019-04-26T15:33:03.086Z,27.53
2019-04-26T15:35:35.625Z,28.34
2019-04-26T15:38:02.527Z,28.75
2019-04-26T15:40:44.954Z,30.30
2019-04-26T15:43:24.417Z,30.46
2019-04-26T15:45:57.412Z,30.57
2019-04-26T15:48:36.896Z,31.40
2019-04-26T15:51:05.592Z,31.93
2019-04-26T15:53:34.221Z,32.07
2019-04-26T15:56:02.964Z,32.54
2019-04-26T15:58:31.599Z,32.49
2019-04-26T16:01:00.401Z,32.79
2019-04-26T16:03:29.096Z,33.05
2019-04-26T16:05:59.144Z,33.40
2019-04-26T16:08:28.109Z,33.62
2019-04-26T16:10:56.758Z,33.72
2019-04-26T16:13:25.410Z,34.06
2019-04-26T16:15:54.085Z,34.36
2019-04-26T16:18:22.725Z,34.46
2019-04-26T16:20:53.189Z,34.43
2019-04-26T16:23:22.387Z,34.75
2019-04-26T16:25:52.565Z,35.16
2019-04-26T16:28:31.030Z,35.36
2019-04-26T16:31:06.646Z,35.64
2019-04-26T16:33:36.277Z,35.90
2019-04-26T16:36:06.312Z,36.09
2019-04-26T16:38:35.920Z,36.26
2019-04-26T16:41:05.355Z,36.48
2019-04-26T16:43:40.029Z,36.24
2019-04-26T16:46:04.951Z,36.74
2019-04-26T16:48:33.630Z,36.93
2019-04-26T16:51:08.423Z,36.82
2019-04-26T16:53:46.445Z,37.01
2019-04-26T16:56:03.708Z,37.34
2019-04-26T16:58:38.141Z,37.64
2019-04-26T17:01:04.482Z,37.85
2019-04-26T17:03:38.191Z,38.06
2019-04-26T17:06:06.617Z,38.76
2019-04-26T17:08:34.052Z,38.82
2019-04-26T17:11:02.693Z,39.03
2019-04-26T17:13:34.768Z,39.05
2019-04-26T17:16:02.288Z,39.69
2019-04-26T17:18:32.333Z,39.54
2019-04-26T17:21:02.571Z,39.17
2019-04-26T17:23:35.922Z,39.29
2019-04-26T17:26:22.631Z,38.96
2019-04-26T17:28:52.461Z,37.75
2019-04-26T17:31:22.841Z,38.14
2019-04-26T17:33:51.501Z,38.30
2019-04-26T17:36:20.189Z,39.19
2019-04-26T17:38:50.420Z,39.12
2019-04-26T17:41:19.221Z,39.94
2019-04-26T17:43:52.070Z,40.42
2019-04-26T17:46:19.437Z,41.29
2019-04-26T17:48:50.706Z,42.01
2019-04-26T17:51:22.893Z,40.93
2019-04-26T17:53:56.123Z,42.07
2019-04-26T17:56:21.517Z,42.84
2019-04-26T17:58:54.246Z,41.80
2019-04-26T18:01:41.152Z,41.41
2019-04-26T18:03:55.587Z,41.00
2019-04-26T18:06:29.496Z,41.27
2019-04-26T18:08:54.726Z,41.81
2019-04-26T18:11:24.853Z,41.95
2019-04-26T18:13:53.482Z,42.35
2019-04-26T18:16:27.350Z,42.30
2019-04-26T18:18:57.208Z,42.44
2019-04-26T18:21:44.156Z,42.51
2019-04-26T18:24:13.272Z,42.72
2019-04-26T18:26:42.051Z,42.92
2019-04-26T18:29:10.724Z,43.25
2019-04-26T18:31:39.537Z,43.69
2019-04-26T18:34:08.170Z,43.69
2019-04-26T18:36:36.745Z,43.83
2019-04-26T18:39:07.951Z,43.94
2019-04-26T18:41:36.626Z,44.13
2019-04-26T18:44:06.190Z,44.02
2019-04-26T18:46:46.888Z,43.75
2019-04-26T18:49:17.564Z,44.13
2019-04-26T18:51:48.027Z,43.98
2019-04-26T18:54:17.816Z,44.16
2019-04-26T18:56:46.669Z,43.96
2019-04-26T18:59:15.648Z,44.13
2019-04-26T19:01:44.443Z,43.96
2019-04-26T19:04:15.455Z,44.48
2019-04-26T19:06:43.557Z,44.67
2019-04-26T19:09:12.524Z,45.11
2019-04-26T19:11:42.088Z,45.13
2019-04-26T19:14:16.012Z,45.35
2019-04-26T19:17:02.032Z,45.53
2019-04-26T19:19:44.864Z,46.01
2019-04-26T19:22:16.735Z,46.25
2019-04-26T19:24:43.978Z,46.58
2019-04-26T19:27:12.708Z,46.88
2019-04-26T19:29:43.271Z,46.84
2019-04-26T19:32:11.996Z,47.10
2019-04-26T19:34:42.138Z,47.12
2019-04-26T19:37:10.941Z,47.40
2019-04-26T19:39:39.600Z,47.39
2019-04-26T19:42:08.308Z,47.66
2019-04-26T19:44:36.940Z,47.70
2019-04-26T19:47:19.614Z,47.72
2019-04-26T19:49:54.085Z,48.13
2019-04-26T19:52:33.634Z,48.26
2019-04-26T19:55:18.288Z,48.38
2019-04-26T19:58:01.942Z,48.79
2019-04-26T20:00:32.188Z,49.26
2019-04-26T20:03:01.626Z,49.54
2019-04-26T20:05:31.982Z,49.96
2019-04-26T20:08:02.957Z,50.09
2019-04-26T20:10:34.556Z,50.08
2019-04-26T20:13:02.552Z,49.97
2019-04-26T20:15:31.894Z,50.93
2019-04-26T20:18:03.679Z,51.05
2019-04-26T20:20:32.806Z,51.09
2019-04-26T20:23:05.965Z,53.07
2019-04-26T20:25:31.759Z,53.17
2019-04-26T20:28:01.486Z,52.63
2019-04-26T20:30:35.122Z,53.41
2019-04-26T20:33:04.024Z,53.51
2019-04-26T20:35:32.668Z,53.02
2019-04-26T20:38:04.656Z,53.07
2019-04-26T20:40:31.705Z,53.79
2019-04-26T20:43:03.267Z,54.45
2019-04-26T20:45:39.878Z,55.04
2019-04-26T20:48:02.350Z,54.26
2019-04-26T20:50:35.157Z,54.66
2019-04-26T20:53:02.354Z,55.46
2019-04-26T20:55:34.495Z,55.03
2019-04-26T20:58:07.065Z,56.15
2019-04-26T21:00:36.449Z,56.22
2019-04-26T21:03:05.960Z,55.72
2019-04-26T21:05:45.762Z,57.07
2019-04-26T21:08:03.765Z,56.64
2019-04-26T21:10:32.531Z,56.37
2019-04-26T21:13:01.908Z,56.45
2019-04-26T21:15:32.183Z,57.93
2019-04-26T21:18:04.063Z,57.42
2019-04-26T21:20:34.492Z,57.71
2019-04-26T21:23:02.689Z,57.37
2019-04-26T21:25:42.846Z,58.06
2019-04-26T21:28:29.405Z,57.86
2019-04-26T21:30:59.620Z,57.51
2019-04-26T21:33:35.398Z,56.92
2019-04-26T21:36:05.933Z,55.81
2019-04-26T21:38:39.394Z,58.46
2019-04-26T21:41:14.012Z,57.63
2019-04-26T21:43:43.837Z,58.30
2019-04-26T21:46:18.496Z,59.29
2019-04-26T21:48:44.572Z,56.61
2019-04-26T21:51:16.061Z,55.82
2019-04-26T21:53:45.100Z,55.60
2019-04-26T21:56:14.834Z,55.76
2019-04-26T21:58:46.015Z,56.52
2019-04-26T22:01:18.997Z,57.44
2019-04-26T22:03:55.257Z,57.81
2019-04-26T22:06:19.985Z,57.77
2019-04-26T22:08:50.313Z,57.57
2019-04-26T22:11:19.922Z,58.47
2019-04-26T22:14:00.268Z,58.69
2019-04-26T22:16:48.893Z,57.58
2019-04-26T22:19:32.117Z,58.94
2019-04-26T22:22:04.249Z,58.95
2019-04-26T22:24:37.661Z,59.19
2019-04-26T22:27:06.302Z,59.21
2019-04-26T22:29:34.945Z,60.01
2019-04-26T22:32:03.825Z,59.89
2019-04-26T22:34:32.506Z,59.82
2019-04-26T22:37:07.193Z,59.57
2019-04-26T22:39:32.620Z,60.56
2019-04-26T22:42:02.808Z,60.52
2019-04-26T22:44:34.681Z,60.16
2019-04-26T22:47:21.527Z,59.36
2019-04-26T22:49:50.237Z,59.00
2019-04-26T22:52:18.876Z,61.37
2019-04-26T22:54:47.653Z,61.32
2019-04-26T22:57:16.668Z,61.60
2019-04-26T22:59:49.944Z,61.16
2019-04-26T23:02:18.570Z,60.50
2019-04-26T23:04:47.520Z,61.52
2019-04-26T23:07:18.518Z,60.96
2019-04-26T23:09:51.938Z,60.11
2019-04-26T23:12:28.122Z,61.05
2019-04-26T23:15:03.895Z,61.89
2019-04-26T23:17:36.844Z,61.83
2019-04-26T23:20:14.353Z,60.66
2019-04-26T23:22:43.039Z,62.58
2019-04-26T23:25:13.551Z,62.64
2019-04-26T23:27:43.569Z,63.44
2019-04-26T23:30:14.045Z,63.33
2019-04-26T23:32:43.438Z,63.17
2019-04-26T23:35:13.743Z,63.04
2019-04-26T23:37:42.509Z,63.12
2019-04-26T23:40:11.254Z,63.25
2019-04-26T23:42:39.893Z,63.66
2019-04-26T23:45:10.651Z,63.80
2019-04-26T23:47:39.144Z,64.13
2019-04-26T23:50:07.990Z,64.17
2019-04-26T23:52:36.628Z,64.50
2019-04-26T23:55:08.806Z,65.04
2019-04-26T23:57:36.533Z,64.61
